createdAt,value
2023-04-05T00:01:36.888Z,101034.80
2023-04-05T00:04:04.897Z,101030.30
2023-04-05T00:06:31.372Z,101034.66
2023-04-05T00:09:03.026Z,101030.48
2023-04-05T00:11:33.005Z,101031.99
2023-04-05T00:14:00.413Z,101030.95
2023-04-05T00:16:28.307Z,101025.22
2023-04-05T00:18:56.403Z,101021.56
2023-04-05T00:21:23.784Z,101021.31
2023-04-05T00:23:53.105Z,101018.05
2023-04-05T00:26:20.689Z,101016.84
2023-04-05T00:28:48.946Z,101014.32
2023-04-05T00:31:15.713Z,101010.27
2023-04-05T00:33:42.798Z,101006.45
2023-04-05T00:36:10.750Z,101002.47
2023-04-05T00:38:38.128Z,101000.49
2023-04-05T00:41:04.639Z,101001.46
2023-04-05T00:43:31.456Z,100997.45
2023-04-05T00:45:57.855Z,100997.13
2023-04-05T00:48:25.365Z,101002.23
2023-04-05T00:50:52.120Z,101000.02
2023-04-05T00:53:20.070Z,100998.95
2023-04-05T00:55:47.786Z,100996.73
2023-04-05T00:58:18.549Z,100993.83
2023-04-05T01:00:58.656Z,100995.56
2023-04-05T01:03:28.697Z,100993.61
2023-04-05T01:06:00.466Z,100990.20
2023-04-05T01:08:45.798Z,100983.93
2023-04-05T01:11:15.593Z,100988.59
2023-04-05T01:13:45.024Z,100986.91
2023-04-05T01:16:11.757Z,100984.30
2023-04-05T01:18:38.481Z,100978.33
2023-04-05T01:21:33.364Z,100976.69
2023-04-05T01:24:12.181Z,100975.53
2023-04-05T01:26:56.648Z,100976.23
2023-04-05T01:29:31.436Z,100976.30
2023-04-05T01:32:10.968Z,100978.59
2023-04-05T01:34:49.004Z,100977.63
2023-04-05T01:37:19.640Z,100976.45
2023-04-05T01:39:48.295Z,100981.64
2023-04-05T01:42:21.567Z,100980.30
2023-04-05T01:44:48.051Z,100980.16
2023-04-05T01:47:14.738Z,100981.92
2023-04-05T01:49:41.164Z,100984.79
2023-04-05T01:52:07.894Z,100991.77
2023-04-05T01:54:34.738Z,100989.56
2023-04-05T01:57:01.167Z,100987.21
2023-04-05T01:59:27.681Z,100990.40
2023-04-05T02:01:54.090Z,100991.85
2023-04-05T02:04:20.973Z,100992.42
2023-04-05T02:06:47.376Z,100993.69
2023-04-05T02:09:13.758Z,100990.27
2023-04-05T02:11:41.212Z,100992.77
2023-04-05T02:14:09.056Z,100997.40
2023-04-05T02:16:36.250Z,100993.30
2023-04-05T02:19:02.930Z,100991.23
2023-04-05T02:21:31.356Z,100991.77
2023-04-05T02:23:57.789Z,100991.66
2023-04-05T02:26:24.252Z,100988.33
2023-04-05T02:28:50.682Z,100991.36
2023-04-05T02:31:17.316Z,100994.46
2023-04-05T02:33:43.848Z,100994.31
2023-04-05T02:36:12.646Z,100991.20
2023-04-05T02:38:39.070Z,100988.29
2023-04-05T02:41:10.401Z,100987.67
2023-04-05T02:43:38.762Z,100988.09
2023-04-05T02:46:05.243Z,100987.50
2023-04-05T02:48:32.457Z,100991.52
2023-04-05T02:50:59.038Z,100996.30
2023-04-05T02:53:25.404Z,100992.71
2023-04-05T02:55:57.260Z,100992.02
2023-04-05T02:58:24.223Z,100994.26
2023-04-05T03:00:52.415Z,100994.59
2023-04-05T03:03:23.885Z,100992.37
2023-04-05T03:05:59.710Z,100993.25
2023-04-05T03:08:28.092Z,100991.24
2023-04-05T03:11:01.274Z,100991.67
2023-04-05T03:13:28.175Z,100992.33
2023-04-05T03:15:55.059Z,100995.89
2023-04-05T03:18:24.985Z,100991.11
2023-04-05T03:20:59.180Z,100995.56
2023-04-05T03:23:28.934Z,100994.01
2023-04-05T03:26:00.666Z,100993.33
2023-04-05T03:28:33.695Z,100991.97
2023-04-05T03:31:02.454Z,100992.27
2023-04-05T03:33:29.363Z,100992.33
2023-04-05T03:35:55.831Z,100992.96
2023-04-05T03:38:22.649Z,100991.23
2023-04-05T03:41:07.711Z,100989.54
2023-04-05T03:43:35.221Z,100991.52
2023-04-05T03:46:01.872Z,100993.92
2023-04-05T03:48:29.034Z,100994.44
2023-04-05T03:50:55.584Z,100992.89
2023-04-05T03:53:22.836Z,100985.50
2023-04-05T03:55:54.588Z,100987.21
2023-04-05T03:58:27.678Z,100984.33
2023-04-05T04:00:56.116Z,100984.27
2023-04-05T04:03:25.347Z,100985.68
2023-04-05T04:05:53.292Z,100989.53
2023-04-05T04:08:20.600Z,100990.05
2023-04-05T04:10:48.681Z,100993.00
2023-04-05T04:13:23.815Z,100991.66
2023-04-05T04:16:10.478Z,100989.40
2023-04-05T04:18:57.172Z,100991.49
2023-04-05T04:21:35.633Z,101001.64
2023-04-05T04:24:32.060Z,100995.77
2023-04-05T04:27:21.857Z,100994.56
2023-04-05T04:30:04.230Z,100998.52
2023-04-05T04:32:53.233Z,101001.38
2023-04-05T04:35:34.270Z,101003.79
2023-04-05T04:38:17.867Z,101002.36
2023-04-05T04:40:53.003Z,101002.20
2023-04-05T04:43:43.176Z,101001.41
2023-04-05T04:46:18.391Z,101002.30
2023-04-05T04:48:58.806Z,100998.98
2023-04-05T04:51:36.925Z,100999.62
2023-04-05T04:54:03.348Z,100996.73
2023-04-05T04:56:29.830Z,100998.07
2023-04-05T04:58:58.069Z,100991.88
2023-04-05T05:01:25.774Z,100996.16
2023-04-05T05:03:52.376Z,100993.39
2023-04-05T05:06:29.199Z,100997.90
2023-04-05T05:08:55.807Z,100999.92
2023-04-05T05:11:22.262Z,101001.52
2023-04-05T05:13:51.273Z,101005.39
2023-04-05T05:16:22.844Z,101009.14
2023-04-05T05:18:52.391Z,101011.92
2023-04-05T05:21:20.363Z,101006.12
2023-04-05T05:23:52.699Z,101006.63
2023-04-05T05:26:19.047Z,101006.91
2023-04-05T05:28:46.380Z,101009.40
2023-04-05T05:31:13.540Z,101011.02
2023-04-05T05:33:40.383Z,101011.00
2023-04-05T05:36:07.457Z,101010.74
2023-04-05T05:38:33.993Z,101013.52
2023-04-05T05:41:00.379Z,101015.23
2023-04-05T05:43:26.984Z,101017.27
2023-04-05T05:45:53.604Z,101020.93
2023-04-05T05:48:20.329Z,101019.79
2023-04-05T05:50:48.529Z,101020.54
2023-04-05T05:53:15.698Z,101021.12
2023-04-05T05:55:42.249Z,101023.46
2023-04-05T05:58:08.713Z,101021.98
2023-04-05T06:00:35.763Z,101025.36
2023-04-05T06:03:03.880Z,101024.35
2023-04-05T06:05:30.336Z,101026.17
2023-04-05T06:07:56.639Z,101031.58
2023-04-05T06:10:23.987Z,101032.73
2023-04-05T06:12:50.431Z,101034.32
2023-04-05T06:15:16.785Z,101032.28
2023-04-05T06:17:43.739Z,101030.92
2023-04-05T06:20:13.375Z,101029.33
2023-04-05T06:22:40.740Z,101029.85
2023-04-05T06:25:08.338Z,101032.33
2023-04-05T06:27:35.163Z,101032.59
2023-04-05T06:30:02.377Z,101031.77
2023-04-05T06:32:29.111Z,101033.09
2023-04-05T06:34:55.524Z,101036.48
2023-04-05T06:37:22.184Z,101036.13
2023-04-05T06:39:48.693Z,101035.88
2023-04-05T06:42:15.456Z,101040.20
2023-04-05T06:44:44.189Z,101038.17
2023-04-05T06:47:10.603Z,101040.36
2023-04-05T06:49:37.032Z,101036.22
2023-04-05T06:52:05.995Z,101037.43
2023-04-05T06:54:33.408Z,101041.88
2023-04-05T06:57:01.779Z,101038.27
2023-04-05T06:59:29.414Z,101039.01
2023-04-05T07:01:56.195Z,101038.96
2023-04-05T07:04:22.890Z,101036.24
2023-04-05T07:06:49.371Z,101034.62
2023-04-05T07:09:16.274Z,101040.45
2023-04-05T07:11:42.606Z,101044.09
2023-04-05T07:14:09.079Z,101045.82
2023-04-05T07:16:35.590Z,101049.20
2023-04-05T07:19:02.079Z,101046.40
2023-04-05T07:21:30.165Z,101046.80
2023-04-05T07:24:00.127Z,101050.45
2023-04-05T07:26:26.571Z,101050.38
2023-04-05T07:28:53.051Z,101050.73
2023-04-05T07:31:19.725Z,101052.90
2023-04-05T07:33:46.090Z,101051.63
2023-04-05T07:36:12.550Z,101054.85
2023-04-05T07:38:39.232Z,101054.11
2023-04-05T07:41:05.838Z,101055.52
2023-04-05T07:43:32.281Z,101054.48
2023-04-05T07:46:05.018Z,101058.41
2023-04-05T07:48:31.633Z,101051.96
2023-04-05T07:51:06.407Z,101055.58
2023-04-05T07:53:32.803Z,101056.27
2023-04-05T07:56:06.133Z,101052.13
2023-04-05T07:58:33.485Z,101053.63
2023-04-05T08:01:04.091Z,101054.02
2023-04-05T08:03:31.564Z,101052.67
2023-04-05T08:05:57.936Z,101055.48
2023-04-05T08:08:24.982Z,101053.46
2023-04-05T08:10:51.414Z,101054.15
2023-04-05T08:13:17.762Z,101055.00
2023-04-05T08:15:44.123Z,101055.56
2023-04-05T08:18:10.574Z,101052.17
2023-04-05T08:20:38.854Z,101053.98
2023-04-05T08:23:05.520Z,101051.87
2023-04-05T08:25:31.876Z,101052.73
2023-04-05T08:27:58.426Z,101054.26
2023-04-05T08:30:24.773Z,101054.23
2023-04-05T08:32:51.267Z,101055.20
2023-04-05T08:35:17.680Z,101054.73
2023-04-05T08:37:44.128Z,101053.98
2023-04-05T08:40:11.447Z,101053.16
2023-04-05T08:43:09.862Z,101054.52
2023-04-05T08:45:47.853Z,101059.17
2023-04-05T08:48:15.031Z,101056.11
2023-04-05T08:50:41.671Z,101054.38
2023-04-05T08:53:10.987Z,101051.81
2023-04-05T08:55:38.876Z,101052.58
2023-04-05T08:58:12.091Z,101052.82
2023-04-05T09:00:40.685Z,101054.49
2023-04-05T09:03:12.337Z,101050.42
2023-04-05T09:05:40.408Z,101051.89
2023-04-05T09:08:06.932Z,101051.27
2023-04-05T09:10:33.918Z,101046.35
2023-04-05T09:13:02.263Z,101047.83
2023-04-05T09:15:29.852Z,101051.30
2023-04-05T09:17:56.955Z,101049.76
2023-04-05T09:20:23.724Z,101046.70
2023-04-05T09:22:50.445Z,101047.55
2023-04-05T09:25:31.891Z,101045.42
2023-04-05T09:27:59.387Z,101048.08
2023-04-05T09:30:27.361Z,101043.86
2023-04-05T09:32:55.525Z,101047.58
2023-04-05T09:35:23.712Z,101046.64
2023-04-05T09:37:55.475Z,101043.23
2023-04-05T09:40:24.077Z,101046.88
2023-04-05T09:42:52.465Z,101046.67
2023-04-05T09:45:18.984Z,101044.95
2023-04-05T09:47:56.914Z,101046.77
2023-04-05T09:50:23.564Z,101041.23
2023-04-05T09:52:52.035Z,101039.90
2023-04-05T09:55:28.448Z,101042.80
2023-04-05T09:57:54.899Z,101043.88
2023-04-05T10:00:22.168Z,101040.64
2023-04-05T10:02:53.499Z,101039.95
2023-04-05T10:05:23.757Z,101037.55
2023-04-05T10:07:51.550Z,101041.44
2023-04-05T10:10:18.302Z,101039.90
2023-04-05T10:12:46.391Z,101042.13
2023-04-05T10:15:13.767Z,101037.04
2023-04-05T10:18:10.113Z,101042.39
2023-04-05T10:20:41.017Z,101040.08
2023-04-05T10:23:12.805Z,101041.32
2023-04-05T10:25:52.944Z,101043.41
2023-04-05T10:28:33.304Z,101041.23
2023-04-05T10:31:40.366Z,101042.76
2023-04-05T10:34:11.882Z,101041.73
2023-04-05T10:36:58.763Z,101042.55
2023-04-05T10:39:33.018Z,101043.59
2023-04-05T10:42:06.477Z,101045.08
2023-04-05T10:44:36.750Z,101048.68
2023-04-05T10:47:04.737Z,101047.65
2023-04-05T10:49:37.201Z,101045.82
2023-04-05T10:52:05.332Z,101039.92
2023-04-05T10:54:36.019Z,101038.60
2023-04-05T10:57:09.453Z,101037.31
2023-04-05T10:59:42.333Z,101037.05
2023-04-05T11:02:09.781Z,101038.77
2023-04-05T11:04:38.757Z,101034.88
2023-04-05T11:07:17.429Z,101034.84
2023-04-05T11:09:57.022Z,101032.05
2023-04-05T11:12:45.739Z,101030.48
2023-04-05T11:15:27.172Z,101031.08
2023-04-05T11:18:15.506Z,101032.55
2023-04-05T11:20:44.935Z,101030.92
2023-04-05T11:23:16.225Z,101029.02
2023-04-05T11:25:47.561Z,101033.18
2023-04-05T11:28:36.638Z,101031.35
2023-04-05T11:31:17.288Z,101034.98
2023-04-05T11:33:55.323Z,101032.77
2023-04-05T11:36:51.744Z,101027.55
2023-04-05T11:39:18.283Z,101027.95
2023-04-05T11:41:54.804Z,101027.73
2023-04-05T11:44:23.363Z,101028.34
2023-04-05T11:46:52.578Z,101024.50
2023-04-05T11:49:23.859Z,101028.59
2023-04-05T11:51:52.078Z,101030.09
2023-04-05T11:54:29.532Z,101031.32
2023-04-05T11:56:56.175Z,101027.94
2023-04-05T11:59:35.933Z,101028.12
2023-04-05T12:02:07.009Z,101027.30
2023-04-05T12:04:37.370Z,101028.20
2023-04-05T12:07:16.739Z,101028.58
2023-04-05T12:10:01.944Z,101027.34
2023-04-05T12:12:34.224Z,101027.41
2023-04-05T12:15:02.297Z,101026.01
2023-04-05T12:17:38.671Z,101020.23
2023-04-05T12:20:06.421Z,101019.14
2023-04-05T12:22:33.590Z,101021.12
2023-04-05T12:25:00.105Z,101019.82
2023-04-05T12:27:26.784Z,101019.77
2023-04-05T12:30:16.034Z,101018.71
2023-04-05T12:32:54.196Z,101016.13
2023-04-05T12:35:34.655Z,101011.05
2023-04-05T12:38:02.864Z,101007.64
2023-04-05T12:40:30.405Z,101004.23
2023-04-05T12:43:05.090Z,101008.47
2023-04-05T12:45:39.005Z,101006.96
2023-04-05T12:48:11.325Z,101004.41
2023-04-05T12:50:42.610Z,101007.42
2023-04-05T12:53:27.883Z,101007.74
2023-04-05T12:55:55.850Z,101008.77
2023-04-05T12:58:31.993Z,101005.91
2023-04-05T13:00:58.456Z,100999.69
2023-04-05T13:03:26.276Z,101002.04
2023-04-05T13:05:52.988Z,101004.16
2023-04-05T13:08:19.620Z,101007.01
2023-04-05T13:10:47.428Z,101004.52
2023-04-05T13:13:14.755Z,101003.10
2023-04-05T13:15:41.630Z,101004.70
2023-04-05T13:18:09.439Z,101000.89
2023-04-05T13:20:36.362Z,101003.13
2023-04-05T13:23:02.748Z,101001.89
2023-04-05T13:25:29.131Z,100995.95
2023-04-05T13:27:55.461Z,100995.21
2023-04-05T13:30:22.028Z,100992.43
2023-04-05T13:32:48.489Z,100996.73
2023-04-05T13:35:15.486Z,100994.19
2023-04-05T13:37:41.845Z,100992.91
2023-04-05T13:40:08.803Z,100993.89
2023-04-05T13:42:35.401Z,100991.39
2023-04-05T13:45:02.516Z,100997.96
2023-04-05T13:47:28.977Z,100997.72
2023-04-05T13:49:55.417Z,100991.98
2023-04-05T13:52:22.206Z,100991.22
2023-04-05T13:54:48.553Z,100988.96
2023-04-05T13:57:28.690Z,100985.10
2023-04-05T13:59:55.418Z,100987.33
2023-04-05T14:02:25.074Z,100986.14
2023-04-05T14:04:54.805Z,100991.89
2023-04-05T14:07:22.220Z,100991.91
2023-04-05T14:09:48.630Z,100993.12
2023-04-05T14:12:15.277Z,100993.79
2023-04-05T14:14:41.785Z,100993.45
2023-04-05T14:17:08.523Z,100990.83
2023-04-05T14:19:35.150Z,100992.14
2023-04-05T14:22:01.515Z,100991.38
2023-04-05T14:24:28.076Z,100990.70
2023-04-05T14:26:57.392Z,100989.17
2023-04-05T14:29:25.410Z,100989.83
2023-04-05T14:31:54.084Z,100985.66
2023-04-05T14:34:20.586Z,100991.23
2023-04-05T14:36:47.263Z,100989.23
2023-04-05T14:39:13.703Z,100993.41
2023-04-05T14:41:40.340Z,100990.73
2023-04-05T14:44:06.835Z,100990.11
2023-04-05T14:46:33.231Z,100988.58
2023-04-05T14:48:59.712Z,100986.85
2023-04-05T14:51:26.669Z,100986.70
2023-04-05T14:53:53.197Z,100986.69
2023-04-05T14:56:19.622Z,100989.70
2023-04-05T14:58:46.091Z,100991.27
2023-04-05T15:01:12.710Z,100991.98
2023-04-05T15:03:39.290Z,100994.39
2023-04-05T15:06:06.140Z,100996.88
2023-04-05T15:08:32.794Z,100996.17
2023-04-05T15:10:59.689Z,100996.94
2023-04-05T15:13:26.360Z,101000.86
2023-04-05T15:15:52.910Z,101002.27
2023-04-05T15:18:19.611Z,101002.02
2023-04-05T15:20:46.129Z,101001.41
2023-04-05T15:23:12.659Z,101002.77
2023-04-05T15:25:39.089Z,101003.43
2023-04-05T15:28:07.037Z,101002.63
2023-04-05T15:30:35.104Z,101005.38
2023-04-05T15:33:01.585Z,101007.69
2023-04-05T15:35:28.671Z,101013.52
2023-04-05T15:37:55.110Z,101015.67
2023-04-05T15:40:21.867Z,101016.96
2023-04-05T15:42:48.233Z,101011.64
2023-04-05T15:45:14.851Z,101018.77
2023-04-05T15:47:41.343Z,101019.09
2023-04-05T15:50:08.065Z,101016.89
2023-04-05T15:52:35.216Z,101017.33
2023-04-05T15:55:03.060Z,101018.53
2023-04-05T15:57:29.653Z,101018.64
2023-04-05T15:59:56.066Z,101020.35
2023-04-05T16:02:22.852Z,101023.30
2023-04-05T16:04:49.468Z,101020.90
2023-04-05T16:07:16.103Z,101015.71
2023-04-05T16:09:44.096Z,101016.84
2023-04-05T16:12:10.647Z,101015.89
2023-04-05T16:14:37.670Z,101015.77
2023-04-05T16:17:04.246Z,101010.16
2023-04-05T16:19:30.978Z,101011.30
2023-04-05T16:21:59.480Z,101009.66
2023-04-05T16:24:27.187Z,101010.52
2023-04-05T16:26:53.739Z,101011.98
2023-04-05T16:29:20.211Z,101013.83
2023-04-05T16:31:46.905Z,101017.14
2023-04-05T16:34:13.574Z,101016.88
2023-04-05T16:36:41.034Z,101017.13
2023-04-05T16:39:08.037Z,101016.17
2023-04-05T16:41:35.580Z,101016.63
2023-04-05T16:44:02.792Z,101015.55
2023-04-05T16:46:31.443Z,101016.52
2023-04-05T16:48:59.054Z,101019.39
2023-04-05T16:51:25.900Z,101018.34
2023-04-05T16:53:53.226Z,101020.29
2023-04-05T16:56:20.214Z,101024.00
2023-04-05T16:58:46.795Z,101024.02
2023-04-05T17:01:13.562Z,101025.27
2023-04-05T17:03:41.398Z,101027.83
2023-04-05T17:06:10.383Z,101029.15
2023-04-05T17:08:37.116Z,101030.34
2023-04-05T17:11:03.773Z,101031.09
2023-04-05T17:13:30.484Z,101033.48
2023-04-05T17:15:57.276Z,101035.12
2023-04-05T17:18:24.368Z,101034.98
2023-04-05T17:20:50.979Z,101036.62
2023-04-05T17:23:17.453Z,101039.16
2023-04-05T17:25:43.852Z,101036.86
2023-04-05T17:28:12.190Z,101037.92
2023-04-05T17:30:38.578Z,101038.54
2023-04-05T17:33:05.641Z,101040.39
2023-04-05T17:35:32.326Z,101040.66
2023-04-05T17:37:59.296Z,101046.69
2023-04-05T17:40:26.596Z,101048.42
2023-04-05T17:42:52.956Z,101045.63
2023-04-05T17:45:19.458Z,101050.80
2023-04-05T17:47:46.246Z,101055.75
2023-04-05T17:50:12.953Z,101060.33
2023-04-05T17:52:39.917Z,101064.84
2023-04-05T17:55:06.584Z,101068.54
2023-04-05T17:57:32.952Z,101067.39
2023-04-05T17:59:59.751Z,101069.52
2023-04-05T18:02:27.318Z,101071.89
2023-04-05T18:04:54.160Z,101077.16
2023-04-05T18:07:20.659Z,101075.34
2023-04-05T18:09:47.199Z,101076.93
2023-04-05T18:12:14.055Z,101074.24
2023-04-05T18:14:41.012Z,101077.08
2023-04-05T18:17:07.821Z,101077.17
2023-04-05T18:19:35.246Z,101079.19
2023-04-05T18:22:02.132Z,101080.49
2023-04-05T18:24:28.765Z,101084.75
2023-04-05T18:26:55.205Z,101086.13
2023-04-05T18:29:27.475Z,101091.19
2023-04-05T18:31:55.378Z,101092.48
2023-04-05T18:34:22.794Z,101095.71
2023-04-05T18:36:50.343Z,101097.23
2023-04-05T18:39:18.928Z,101101.52
2023-04-05T18:41:45.437Z,101104.33
2023-04-05T18:44:12.404Z,101104.12
2023-04-05T18:46:39.217Z,101103.27
2023-04-05T18:49:05.934Z,101106.95
2023-04-05T18:51:33.041Z,101107.82
2023-04-05T18:53:59.770Z,101108.50
2023-04-05T18:56:27.266Z,101109.65
2023-04-05T18:58:53.744Z,101108.06
2023-04-05T19:01:21.707Z,101107.89
2023-04-05T19:03:49.848Z,101110.41
2023-04-05T19:06:17.445Z,101108.86
2023-04-05T19:08:47.245Z,101108.87
2023-04-05T19:11:14.287Z,101110.18
2023-04-05T19:13:41.500Z,101115.08
2023-04-05T19:16:08.065Z,101115.66
2023-04-05T19:18:34.618Z,101111.05
2023-04-05T19:21:01.166Z,101116.51
2023-04-05T19:23:28.019Z,101119.17
2023-04-05T19:25:55.855Z,101118.63
2023-04-05T19:28:23.689Z,101116.74
2023-04-05T19:30:50.451Z,101118.16
2023-04-05T19:33:19.094Z,101116.23
2023-04-05T19:35:47.254Z,101116.01
2023-04-05T19:38:13.743Z,101118.33
2023-04-05T19:40:41.527Z,101117.21
2023-04-05T19:43:09.169Z,101119.07
2023-04-05T19:45:36.438Z,101119.06
2023-04-05T19:48:26.979Z,101120.81
2023-04-05T19:50:56.690Z,101122.11
2023-04-05T19:53:31.921Z,101122.20
2023-04-05T19:55:58.301Z,101119.60
2023-04-05T19:58:28.500Z,101122.41
2023-04-05T20:00:55.073Z,101118.67
2023-04-05T20:03:31.328Z,101122.46
2023-04-05T20:06:03.363Z,101123.08
2023-04-05T20:08:33.007Z,101122.21
2023-04-05T20:10:59.519Z,101117.14
2023-04-05T20:13:26.284Z,101113.83
2023-04-05T20:15:53.390Z,101109.16
2023-04-05T20:18:25.236Z,101103.66
2023-04-05T20:20:53.231Z,101106.55
2023-04-05T20:23:21.707Z,101101.58
2023-04-05T20:25:50.111Z,101103.92
2023-04-05T20:28:38.400Z,101103.71
2023-04-05T20:31:04.719Z,101103.24
2023-04-05T20:33:53.437Z,101100.25
2023-04-05T20:36:28.842Z,101096.01
2023-04-05T20:38:55.561Z,101098.86
2023-04-05T20:41:22.097Z,101092.89
2023-04-05T20:43:48.516Z,101092.85
2023-04-05T20:46:16.068Z,101088.62
2023-04-05T20:48:43.024Z,101089.67
2023-04-05T20:51:14.007Z,101088.27
2023-04-05T20:53:40.989Z,101092.58
2023-04-05T20:56:09.049Z,101093.61
2023-04-05T20:58:36.894Z,101095.05
2023-04-05T21:01:04.045Z,101091.91
2023-04-05T21:03:32.425Z,101092.04
2023-04-05T21:06:00.489Z,101090.77
2023-04-05T21:08:28.652Z,101089.54
2023-04-05T21:10:56.372Z,101088.68
2023-04-05T21:13:24.809Z,101087.48
2023-04-05T21:15:53.233Z,101090.73
2023-04-05T21:18:22.586Z,101092.48
2023-04-05T21:20:50.436Z,101092.09
2023-04-05T21:23:21.781Z,101092.55
2023-04-05T21:25:49.181Z,101091.82
2023-04-05T21:28:16.179Z,101092.95
2023-04-05T21:30:43.161Z,101092.65
2023-04-05T21:33:10.578Z,101097.77
2023-04-05T21:35:37.459Z,101091.70
2023-04-05T21:38:04.272Z,101088.73
2023-04-05T21:40:31.219Z,101085.90
2023-04-05T21:42:57.793Z,101084.42
2023-04-05T21:45:24.714Z,101088.85
2023-04-05T21:47:51.908Z,101089.84
2023-04-05T21:50:18.864Z,101086.04
2023-04-05T21:52:45.683Z,101086.77
2023-04-05T21:55:12.236Z,101081.84
2023-04-05T21:57:39.083Z,101086.67
2023-04-05T22:00:10.395Z,101084.23
2023-04-05T22:02:39.578Z,101077.83
2023-04-05T22:05:07.299Z,101077.00
2023-04-05T22:07:34.965Z,101078.48
2023-04-05T22:10:02.201Z,101078.41
2023-04-05T22:12:28.992Z,101076.25
2023-04-05T22:14:55.853Z,101075.69
2023-04-05T22:17:22.369Z,101077.52
2023-04-05T22:19:48.827Z,101077.05
2023-04-05T22:22:16.241Z,101074.39
2023-04-05T22:24:43.029Z,101072.90
2023-04-05T22:27:10.386Z,101069.75
2023-04-05T22:29:37.708Z,101069.44
2023-04-05T22:32:04.348Z,101067.25
2023-04-05T22:34:30.766Z,101068.57
2023-04-05T22:36:57.321Z,101067.80
2023-04-05T22:39:23.858Z,101066.14
2023-04-05T22:41:50.260Z,101061.50
2023-04-05T22:44:16.796Z,101061.72
2023-04-05T22:46:43.217Z,101059.52
2023-04-05T22:49:09.957Z,101057.81
2023-04-05T22:51:36.657Z,101058.62
2023-04-05T22:54:03.198Z,101057.10
2023-04-05T22:56:30.997Z,101053.20
2023-04-05T22:58:57.434Z,101052.80
2023-04-05T23:01:23.876Z,101049.19
2023-04-05T23:03:50.376Z,101050.15
2023-04-05T23:06:16.962Z,101047.71
2023-04-05T23:08:43.345Z,101046.04
2023-04-05T23:11:09.987Z,101047.71
2023-04-05T23:13:36.349Z,101045.12
2023-04-05T23:16:03.485Z,101044.23
2023-04-05T23:18:30.439Z,101045.32
2023-04-05T23:20:56.888Z,101043.05
2023-04-05T23:23:23.360Z,101040.81
2023-04-05T23:25:50.434Z,101039.98
2023-04-05T23:28:16.932Z,101035.30
2023-04-05T23:30:43.425Z,101032.59
2023-04-05T23:33:13.056Z,101034.48
2023-04-05T23:35:40.580Z,101036.13
2023-04-05T23:38:07.171Z,101038.67
2023-04-05T23:40:33.863Z,101037.75
2023-04-05T23:43:00.708Z,101035.02
2023-04-05T23:45:27.632Z,101033.84
2023-04-05T23:47:55.036Z,101031.29
2023-04-05T23:50:21.830Z,101029.70
2023-04-05T23:52:48.616Z,101027.21
2023-04-05T23:55:15.605Z,101025.45
2023-04-05T23:57:42.028Z,101025.89
